sensor_id;sensor_type;location;lat;lon;timestamp;temperature;humidity
18611;DHT22;9435;52.122;5.502;2023-02-28T00:01:06;0.70;99.90
18611;DHT22;9435;52.122;5.502;2023-02-28T00:03:33;0.70;99.90
18611;DHT22;9435;52.122;5.502;2023-02-28T00:06:01;0.70;99.90
18611;DHT22;9435;52.122;5.502;2023-02-28T00:08:30;0.80;99.90
18611;DHT22;9435;52.122;5.502;2023-02-28T00:11:01;0.80;99.90
18611;DHT22;9435;52.122;5.502;2023-02-28T00:13:28;0.70;99.90
18611;DHT22;9435;52.122;5.502;2023-02-28T00:16:03;0.70;99.90
18611;DHT22;9435;52.122;5.502;2023-02-28T00:18:31;0.70;99.90
18611;DHT22;9435;52.122;5.502;2023-02-28T00:20:58;0.60;99.90
18611;DHT22;9435;52.122;5.502;2023-02-28T00:23:25;0.70;99.90
18611;DHT22;9435;52.122;5.502;2023-02-28T00:25:54;0.70;99.90
18611;DHT22;9435;52.122;5.502;2023-02-28T00:28:21;0.80;99.90
18611;DHT22;9435;52.122;5.502;2023-02-28T00:30:49;0.80;99.90
18611;DHT22;9435;52.122;5.502;2023-02-28T00:33:16;0.90;99.90
18611;DHT22;9435;52.122;5.502;2023-02-28T00:35:43;1.00;99.90
18611;DHT22;9435;52.122;5.502;2023-02-28T00:38:12;1.00;99.90
18611;DHT22;9435;52.122;5.502;2023-02-28T00:40:39;1.10;99.90
18611;DHT22;9435;52.122;5.502;2023-02-28T00:43:07;1.20;99.90
18611;DHT22;9435;52.122;5.502;2023-02-28T00:45:34;1.20;99.90
18611;DHT22;9435;52.122;5.502;2023-02-28T00:48:02;1.20;99.90
18611;DHT22;9435;52.122;5.502;2023-02-28T00:50:29;1.20;99.90
18611;DHT22;9435;52.122;5.502;2023-02-28T00:52:56;1.20;99.90
18611;DHT22;9435;52.122;5.502;2023-02-28T00:55:23;1.20;99.90
18611;DHT22;9435;52.122;5.502;2023-02-28T00:57:50;1.30;99.90
18611;DHT22;9435;52.122;5.502;2023-02-28T01:00:19;1.20;99.90
18611;DHT22;9435;52.122;5.502;2023-02-28T01:02:46;1.20;99.90
18611;DHT22;9435;52.122;5.502;2023-02-28T01:05:13;1.20;99.90
18611;DHT22;9435;52.122;5.502;2023-02-28T01:07:40;1.30;99.90
18611;DHT22;9435;52.122;5.502;2023-02-28T01:10:09;1.30;99.90
18611;DHT22;9435;52.122;5.502;2023-02-28T01:12:36;1.30;99.90
18611;DHT22;9435;52.122;5.502;2023-02-28T01:15:04;1.30;99.90
18611;DHT22;9435;52.122;5.502;2023-02-28T01:17:32;1.40;99.90
18611;DHT22;9435;52.122;5.502;2023-02-28T01:19:59;1.40;99.90
18611;DHT22;9435;52.122;5.502;2023-02-28T01:22:26;1.40;99.90
18611;DHT22;9435;52.122;5.502;2023-02-28T01:24:53;1.40;99.90
18611;DHT22;9435;52.122;5.502;2023-02-28T01:27:21;1.40;99.90
18611;DHT22;9435;52.122;5.502;2023-02-28T01:29:48;1.50;99.90
18611;DHT22;9435;52.122;5.502;2023-02-28T01:32:15;1.50;99.90
18611;DHT22;9435;52.122;5.502;2023-02-28T01:34:43;1.50;99.90
18611;DHT22;9435;52.122;5.502;2023-02-28T01:37:10;1.50;99.90
18611;DHT22;9435;52.122;5.502;2023-02-28T01:39:37;1.60;99.90
18611;DHT22;9435;52.122;5.502;2023-02-28T01:42:04;1.60;99.90
18611;DHT22;9435;52.122;5.502;2023-02-28T01:44:57;1.60;99.90
18611;DHT22;9435;52.122;5.502;2023-02-28T01:47:25;1.60;99.90
18611;DHT22;9435;52.122;5.502;2023-02-28T01:49:55;1.60;99.90
18611;DHT22;9435;52.122;5.502;2023-02-28T01:52:23;1.70;99.90
18611;DHT22;9435;52.122;5.502;2023-02-28T01:54:52;1.60;99.90
18611;DHT22;9435;52.122;5.502;2023-02-28T01:57:23;1.70;99.90
18611;DHT22;9435;52.122;5.502;2023-02-28T01:59:54;1.70;99.90
18611;DHT22;9435;52.122;5.502;2023-02-28T02:02:25;1.70;99.90
18611;DHT22;9435;52.122;5.502;2023-02-28T02:04:57;1.70;99.90
18611;DHT22;9435;52.122;5.502;2023-02-28T02:07:30;1.80;99.90
18611;DHT22;9435;52.122;5.502;2023-02-28T02:10:04;1.80;99.90
18611;DHT22;9435;52.122;5.502;2023-02-28T02:12:39;1.80;99.90
18611;DHT22;9435;52.122;5.502;2023-02-28T02:15:13;1.80;99.90
18611;DHT22;9435;52.122;5.502;2023-02-28T02:17:46;1.80;99.90
18611;DHT22;9435;52.122;5.502;2023-02-28T02:26:50;1.80;99.90
18611;DHT22;9435;52.122;5.502;2023-02-28T02:29:47;1.80;99.90
18611;DHT22;9435;52.122;5.502;2023-02-28T02:32:28;1.80;99.90
18611;DHT22;9435;52.122;5.502;2023-02-28T02:35:08;1.80;99.90
18611;DHT22;9435;52.122;5.502;2023-02-28T02:37:42;1.80;99.90
18611;DHT22;9435;52.122;5.502;2023-02-28T02:40:14;1.80;99.90
18611;DHT22;9435;52.122;5.502;2023-02-28T02:42:45;1.80;99.90
18611;DHT22;9435;52.122;5.502;2023-02-28T02:45:19;1.80;99.90
18611;DHT22;9435;52.122;5.502;2023-02-28T02:47:49;1.80;99.90
18611;DHT22;9435;52.122;5.502;2023-02-28T02:50:24;1.80;99.90
18611;DHT22;9435;52.122;5.502;2023-02-28T02:52:56;1.80;99.90
18611;DHT22;9435;52.122;5.502;2023-02-28T02:55:24;1.80;99.90
18611;DHT22;9435;52.122;5.502;2023-02-28T02:57:54;1.80;99.90
18611;DHT22;9435;52.122;5.502;2023-02-28T03:00:26;1.90;99.90
18611;DHT22;9435;52.122;5.502;2023-02-28T03:02:57;1.90;99.90
18611;DHT22;9435;52.122;5.502;2023-02-28T03:05:27;1.90;99.90
18611;DHT22;9435;52.122;5.502;2023-02-28T03:07:55;1.90;99.90
18611;DHT22;9435;52.122;5.502;2023-02-28T03:10:32;2.00;99.90
18611;DHT22;9435;52.122;5.502;2023-02-28T03:13:35;2.00;99.90
18611;DHT22;9435;52.122;5.502;2023-02-28T03:16:22;2.00;99.90
18611;DHT22;9435;52.122;5.502;2023-02-28T03:18:57;2.00;99.90
18611;DHT22;9435;52.122;5.502;2023-02-28T03:21:35;2.00;99.90
18611;DHT22;9435;52.122;5.502;2023-02-28T03:24:08;2.10;99.90
18611;DHT22;9435;52.122;5.502;2023-02-28T03:26:41;2.10;99.90
18611;DHT22;9435;52.122;5.502;2023-02-28T03:29:15;2.10;99.90
18611;DHT22;9435;52.122;5.502;2023-02-28T03:31:47;2.00;99.90
18611;DHT22;9435;52.122;5.502;2023-02-28T03:34:19;2.10;99.90
18611;DHT22;9435;52.122;5.502;2023-02-28T03:36:52;2.10;99.90
18611;DHT22;9435;52.122;5.502;2023-02-28T03:39:23;2.10;99.90
18611;DHT22;9435;52.122;5.502;2023-02-28T03:41:54;2.10;99.90
18611;DHT22;9435;52.122;5.502;2023-02-28T03:44:27;2.10;99.90
18611;DHT22;9435;52.122;5.502;2023-02-28T03:46:58;2.10;99.90
18611;DHT22;9435;52.122;5.502;2023-02-28T03:49:30;2.10;99.90
18611;DHT22;9435;52.122;5.502;2023-02-28T03:52:02;2.10;99.90
18611;DHT22;9435;52.122;5.502;2023-02-28T03:54:32;2.10;99.90
18611;DHT22;9435;52.122;5.502;2023-02-28T03:57:04;2.10;99.90
18611;DHT22;9435;52.122;5.502;2023-02-28T03:59:36;2.20;99.90
18611;DHT22;9435;52.122;5.502;2023-02-28T04:02:04;2.20;99.90
18611;DHT22;9435;52.122;5.502;2023-02-28T04:04:32;2.10;99.90
18611;DHT22;9435;52.122;5.502;2023-02-28T04:07:07;2.20;99.90
18611;DHT22;9435;52.122;5.502;2023-02-28T04:09:34;2.20;99.90
18611;DHT22;9435;52.122;5.502;2023-02-28T04:12:01;2.20;99.90
18611;DHT22;9435;52.122;5.502;2023-02-28T04:14:28;2.30;99.90
18611;DHT22;9435;52.122;5.502;2023-02-28T04:16:55;2.30;99.90
18611;DHT22;9435;52.122;5.502;2023-02-28T04:19:22;2.30;99.90
18611;DHT22;9435;52.122;5.502;2023-02-28T04:21:51;2.30;99.90
18611;DHT22;9435;52.122;5.502;2023-02-28T04:24:21;2.20;99.90
18611;DHT22;9435;52.122;5.502;2023-02-28T04:26:51;2.20;99.90
18611;DHT22;9435;52.122;5.502;2023-02-28T04:29:20;2.20;99.90
18611;DHT22;9435;52.122;5.502;2023-02-28T04:31:47;2.20;99.90
18611;DHT22;9435;52.122;5.502;2023-02-28T04:34:14;2.10;99.90
18611;DHT22;9435;52.122;5.502;2023-02-28T04:36:42;2.20;99.90
18611;DHT22;9435;52.122;5.502;2023-02-28T04:39:09;2.10;99.90
18611;DHT22;9435;52.122;5.502;2023-02-28T04:41:37;2.10;99.90
18611;DHT22;9435;52.122;5.502;2023-02-28T04:44:04;2.10;99.90
18611;DHT22;9435;52.122;5.502;2023-02-28T04:46:32;2.10;99.90
18611;DHT22;9435;52.122;5.502;2023-02-28T04:48:59;2.10;99.90
18611;DHT22;9435;52.122;5.502;2023-02-28T04:51:26;2.10;99.90
18611;DHT22;9435;52.122;5.502;2023-02-28T04:53:53;2.10;99.90
18611;DHT22;9435;52.122;5.502;2023-02-28T04:56:21;2.00;99.90
18611;DHT22;9435;52.122;5.502;2023-02-28T04:58:50;2.00;99.90
18611;DHT22;9435;52.122;5.502;2023-02-28T05:01:22;2.00;99.90
18611;DHT22;9435;52.122;5.502;2023-02-28T05:03:49;1.90;99.90
18611;DHT22;9435;52.122;5.502;2023-02-28T05:06:17;1.90;99.90
18611;DHT22;9435;52.122;5.502;2023-02-28T05:08:46;1.80;99.90
18611;DHT22;9435;52.122;5.502;2023-02-28T05:11:16;1.80;99.90
18611;DHT22;9435;52.122;5.502;2023-02-28T05:13:43;1.70;99.90
18611;DHT22;9435;52.122;5.502;2023-02-28T05:16:12;1.70;99.90
18611;DHT22;9435;52.122;5.502;2023-02-28T05:18:39;1.70;99.90
18611;DHT22;9435;52.122;5.502;2023-02-28T05:21:12;1.70;99.90
18611;DHT22;9435;52.122;5.502;2023-02-28T05:23:49;1.70;99.90
18611;DHT22;9435;52.122;5.502;2023-02-28T05:26:16;1.70;99.90
18611;DHT22;9435;52.122;5.502;2023-02-28T05:28:43;1.80;99.90
18611;DHT22;9435;52.122;5.502;2023-02-28T05:31:12;1.80;99.90
18611;DHT22;9435;52.122;5.502;2023-02-28T05:33:39;1.80;99.90
18611;DHT22;9435;52.122;5.502;2023-02-28T05:36:07;1.80;99.90
18611;DHT22;9435;52.122;5.502;2023-02-28T05:38:34;1.70;99.90
18611;DHT22;9435;52.122;5.502;2023-02-28T05:41:05;1.80;99.90
18611;DHT22;9435;52.122;5.502;2023-02-28T05:43:32;1.70;99.90
18611;DHT22;9435;52.122;5.502;2023-02-28T05:46:02;1.70;99.90
18611;DHT22;9435;52.122;5.502;2023-02-28T05:48:31;1.70;99.90
18611;DHT22;9435;52.122;5.502;2023-02-28T05:50:58;1.60;99.90
18611;DHT22;9435;52.122;5.502;2023-02-28T05:53:25;1.70;99.90
18611;DHT22;9435;52.122;5.502;2023-02-28T05:55:53;1.70;99.90
18611;DHT22;9435;52.122;5.502;2023-02-28T05:58:20;1.70;99.90
18611;DHT22;9435;52.122;5.502;2023-02-28T06:00:48;1.60;99.90
18611;DHT22;9435;52.122;5.502;2023-02-28T06:03:15;1.60;99.90
18611;DHT22;9435;52.122;5.502;2023-02-28T06:05:44;1.60;99.90
18611;DHT22;9435;52.122;5.502;2023-02-28T06:08:11;1.60;99.90
18611;DHT22;9435;52.122;5.502;2023-02-28T06:10:38;1.60;99.90
18611;DHT22;9435;52.122;5.502;2023-02-28T06:13:06;1.60;99.90
18611;DHT22;9435;52.122;5.502;2023-02-28T06:15:33;1.60;99.90
18611;DHT22;9435;52.122;5.502;2023-02-28T06:18:00;1.60;99.90
18611;DHT22;9435;52.122;5.502;2023-02-28T06:20:28;1.50;99.90
18611;DHT22;9435;52.122;5.502;2023-02-28T06:22:57;1.50;99.90
18611;DHT22;9435;52.122;5.502;2023-02-28T06:25:25;1.40;99.90
18611;DHT22;9435;52.122;5.502;2023-02-28T06:27:54;1.40;99.90
18611;DHT22;9435;52.122;5.502;2023-02-28T06:30:21;1.40;99.90
18611;DHT22;9435;52.122;5.502;2023-02-28T06:32:51;1.30;99.90
18611;DHT22;9435;52.122;5.502;2023-02-28T06:35:18;1.30;99.90
18611;DHT22;9435;52.122;5.502;2023-02-28T06:37:46;1.30;99.90
18611;DHT22;9435;52.122;5.502;2023-02-28T06:40:15;1.30;99.90
18611;DHT22;9435;52.122;5.502;2023-02-28T06:42:42;1.30;99.90
18611;DHT22;9435;52.122;5.502;2023-02-28T06:45:10;1.30;99.90
18611;DHT22;9435;52.122;5.502;2023-02-28T06:47:38;1.30;99.90
18611;DHT22;9435;52.122;5.502;2023-02-28T06:50:08;1.30;99.90
18611;DHT22;9435;52.122;5.502;2023-02-28T06:52:35;1.30;99.90
18611;DHT22;9435;52.122;5.502;2023-02-28T06:55:03;1.40;99.90
18611;DHT22;9435;52.122;5.502;2023-02-28T06:57:33;1.30;99.90
18611;DHT22;9435;52.122;5.502;2023-02-28T07:00:04;1.30;99.90
18611;DHT22;9435;52.122;5.502;2023-02-28T07:02:33;1.30;99.90
18611;DHT22;9435;52.122;5.502;2023-02-28T07:05:00;1.20;99.90
18611;DHT22;9435;52.122;5.502;2023-02-28T07:07:28;1.20;99.90
18611;DHT22;9435;52.122;5.502;2023-02-28T07:09:55;1.20;99.90
18611;DHT22;9435;52.122;5.502;2023-02-28T07:12:22;1.20;99.90
18611;DHT22;9435;52.122;5.502;2023-02-28T07:14:51;1.10;99.90
18611;DHT22;9435;52.122;5.502;2023-02-28T07:17:20;1.20;99.90
18611;DHT22;9435;52.122;5.502;2023-02-28T07:19:47;1.20;99.90
18611;DHT22;9435;52.122;5.502;2023-02-28T07:22:14;1.20;99.90
18611;DHT22;9435;52.122;5.502;2023-02-28T07:24:41;1.20;99.90
18611;DHT22;9435;52.122;5.502;2023-02-28T07:27:08;1.10;99.90
18611;DHT22;9435;52.122;5.502;2023-02-28T07:29:35;1.10;99.90
18611;DHT22;9435;52.122;5.502;2023-02-28T07:32:04;1.20;99.90
18611;DHT22;9435;52.122;5.502;2023-02-28T07:34:31;1.20;99.90
18611;DHT22;9435;52.122;5.502;2023-02-28T07:36:58;1.20;99.90
18611;DHT22;9435;52.122;5.502;2023-02-28T07:39:29;1.20;99.90
18611;DHT22;9435;52.122;5.502;2023-02-28T07:41:56;1.20;99.90
18611;DHT22;9435;52.122;5.502;2023-02-28T07:44:23;1.30;99.90
18611;DHT22;9435;52.122;5.502;2023-02-28T07:46:50;1.30;99.90
18611;DHT22;9435;52.122;5.502;2023-02-28T07:49:21;1.30;99.90
18611;DHT22;9435;52.122;5.502;2023-02-28T07:51:48;1.40;99.90
18611;DHT22;9435;52.122;5.502;2023-02-28T07:54:15;1.40;99.90
18611;DHT22;9435;52.122;5.502;2023-02-28T07:56:43;1.50;99.90
18611;DHT22;9435;52.122;5.502;2023-02-28T07:59:10;1.60;99.90
18611;DHT22;9435;52.122;5.502;2023-02-28T08:01:37;1.60;99.90
18611;DHT22;9435;52.122;5.502;2023-02-28T08:04:04;1.70;99.90
18611;DHT22;9435;52.122;5.502;2023-02-28T08:06:32;1.80;99.90
18611;DHT22;9435;52.122;5.502;2023-02-28T08:08:59;1.90;99.90
18611;DHT22;9435;52.122;5.502;2023-02-28T08:11:26;2.00;99.90
18611;DHT22;9435;52.122;5.502;2023-02-28T08:13:54;2.10;99.90
18611;DHT22;9435;52.122;5.502;2023-02-28T08:16:22;2.20;99.90
18611;DHT22;9435;52.122;5.502;2023-02-28T08:18:49;2.30;99.90
18611;DHT22;9435;52.122;5.502;2023-02-28T08:21:16;2.30;99.90
18611;DHT22;9435;52.122;5.502;2023-02-28T08:23:46;2.40;99.90
18611;DHT22;9435;52.122;5.502;2023-02-28T08:26:14;2.40;99.90
18611;DHT22;9435;52.122;5.502;2023-02-28T08:28:41;2.40;99.90
18611;DHT22;9435;52.122;5.502;2023-02-28T08:31:09;2.50;99.90
18611;DHT22;9435;52.122;5.502;2023-02-28T08:33:37;2.60;99.90
18611;DHT22;9435;52.122;5.502;2023-02-28T08:36:05;2.60;99.90
18611;DHT22;9435;52.122;5.502;2023-02-28T08:38:32;2.70;99.90
18611;DHT22;9435;52.122;5.502;2023-02-28T08:41:03;2.80;99.90
18611;DHT22;9435;52.122;5.502;2023-02-28T08:43:31;2.80;99.90
18611;DHT22;9435;52.122;5.502;2023-02-28T08:45:58;2.90;99.90
18611;DHT22;9435;52.122;5.502;2023-02-28T08:48:27;2.90;99.90
18611;DHT22;9435;52.122;5.502;2023-02-28T08:50:55;3.00;99.90
18611;DHT22;9435;52.122;5.502;2023-02-28T08:53:23;3.10;99.90
18611;DHT22;9435;52.122;5.502;2023-02-28T08:55:56;3.20;99.90
18611;DHT22;9435;52.122;5.502;2023-02-28T08:58:25;3.20;99.90
18611;DHT22;9435;52.122;5.502;2023-02-28T09:00:53;3.50;99.90
18611;DHT22;9435;52.122;5.502;2023-02-28T09:03:20;3.80;99.90
18611;DHT22;9435;52.122;5.502;2023-02-28T09:05:55;3.90;99.90
18611;DHT22;9435;52.122;5.502;2023-02-28T09:08:23;4.20;99.90
18611;DHT22;9435;52.122;5.502;2023-02-28T09:10:51;4.20;99.90
18611;DHT22;9435;52.122;5.502;2023-02-28T09:13:20;4.20;99.90
18611;DHT22;9435;52.122;5.502;2023-02-28T09:15:48;4.10;99.90
18611;DHT22;9435;52.122;5.502;2023-02-28T09:18:16;4.10;99.90
18611;DHT22;9435;52.122;5.502;2023-02-28T09:20:44;4.00;99.90
18611;DHT22;9435;52.122;5.502;2023-02-28T09:23:13;4.10;99.90
18611;DHT22;9435;52.122;5.502;2023-02-28T09:25:47;4.20;99.90
18611;DHT22;9435;52.122;5.502;2023-02-28T09:28:17;4.30;99.90
18611;DHT22;9435;52.122;5.502;2023-02-28T09:30:45;4.50;99.90
18611;DHT22;9435;52.122;5.502;2023-02-28T09:33:15;4.50;99.90
18611;DHT22;9435;52.122;5.502;2023-02-28T09:35:43;4.50;99.90
18611;DHT22;9435;52.122;5.502;2023-02-28T09:38:10;4.50;99.90
18611;DHT22;9435;52.122;5.502;2023-02-28T09:40:49;4.50;99.90
18611;DHT22;9435;52.122;5.502;2023-02-28T09:43:21;4.60;99.90
18611;DHT22;9435;52.122;5.502;2023-02-28T09:45:55;4.60;99.90
18611;DHT22;9435;52.122;5.502;2023-02-28T09:48:32;4.80;99.90
18611;DHT22;9435;52.122;5.502;2023-02-28T09:51:12;4.80;99.90
18611;DHT22;9435;52.122;5.502;2023-02-28T09:53:48;5.00;99.90
18611;DHT22;9435;52.122;5.502;2023-02-28T09:56:26;5.20;99.90
18611;DHT22;9435;52.122;5.502;2023-02-28T09:59:01;5.20;99.90
18611;DHT22;9435;52.122;5.502;2023-02-28T10:01:34;5.40;99.90
18611;DHT22;9435;52.122;5.502;2023-02-28T10:04:16;5.40;99.90
18611;DHT22;9435;52.122;5.502;2023-02-28T10:07:03;5.60;99.90
18611;DHT22;9435;52.122;5.502;2023-02-28T10:09:33;5.80;99.90
18611;DHT22;9435;52.122;5.502;2023-02-28T10:12:04;5.80;99.90
18611;DHT22;9435;52.122;5.502;2023-02-28T10:14:33;5.70;99.90
18611;DHT22;9435;52.122;5.502;2023-02-28T10:17:04;5.60;99.90
18611;DHT22;9435;52.122;5.502;2023-02-28T10:19:41;5.80;99.90
18611;DHT22;9435;52.122;5.502;2023-02-28T10:22:12;5.90;99.90
18611;DHT22;9435;52.122;5.502;2023-02-28T10:24:42;5.90;99.90
18611;DHT22;9435;52.122;5.502;2023-02-28T10:27:16;5.80;99.90
18611;DHT22;9435;52.122;5.502;2023-02-28T10:29:46;5.80;99.90
18611;DHT22;9435;52.122;5.502;2023-02-28T10:32:16;5.90;99.90
18611;DHT22;9435;52.122;5.502;2023-02-28T10:34:49;6.00;99.90
18611;DHT22;9435;52.122;5.502;2023-02-28T10:37:19;5.60;99.90
18611;DHT22;9435;52.122;5.502;2023-02-28T10:39:46;5.80;99.90
18611;DHT22;9435;52.122;5.502;2023-02-28T10:42:22;5.80;99.90
18611;DHT22;9435;52.122;5.502;2023-02-28T10:45:09;5.80;99.90
18611;DHT22;9435;52.122;5.502;2023-02-28T10:47:51;5.80;99.90
18611;DHT22;9435;52.122;5.502;2023-02-28T10:50:34;6.00;99.90
18611;DHT22;9435;52.122;5.502;2023-02-28T10:53:28;5.90;99.90
18611;DHT22;9435;52.122;5.502;2023-02-28T10:55:59;5.80;99.90
18611;DHT22;9435;52.122;5.502;2023-02-28T10:58:29;5.80;99.90
18611;DHT22;9435;52.122;5.502;2023-02-28T11:00:58;5.80;99.90
18611;DHT22;9435;52.122;5.502;2023-02-28T11:03:30;5.70;99.90
18611;DHT22;9435;52.122;5.502;2023-02-28T11:06:05;5.60;99.90
18611;DHT22;9435;52.122;5.502;2023-02-28T11:08:34;5.80;99.90
18611;DHT22;9435;52.122;5.502;2023-02-28T11:11:04;5.90;99.90
18611;DHT22;9435;52.122;5.502;2023-02-28T11:13:34;5.90;99.90
18611;DHT22;9435;52.122;5.502;2023-02-28T11:16:05;5.80;99.90
18611;DHT22;9435;52.122;5.502;2023-02-28T11:18:40;5.90;99.90
18611;DHT22;9435;52.122;5.502;2023-02-28T11:21:16;6.00;99.90
18611;DHT22;9435;52.122;5.502;2023-02-28T11:23:43;6.00;99.90
18611;DHT22;9435;52.122;5.502;2023-02-28T11:26:11;5.80;99.90
18611;DHT22;9435;52.122;5.502;2023-02-28T11:28:39;5.90;99.90
18611;DHT22;9435;52.122;5.502;2023-02-28T11:31:18;6.10;99.90
18611;DHT22;9435;52.122;5.502;2023-02-28T11:33:49;6.10;99.90
18611;DHT22;9435;52.122;5.502;2023-02-28T11:36:20;6.20;99.90
18611;DHT22;9435;52.122;5.502;2023-02-28T11:38:51;6.30;99.90
18611;DHT22;9435;52.122;5.502;2023-02-28T11:41:31;6.30;99.90
18611;DHT22;9435;52.122;5.502;2023-02-28T11:44:32;6.30;99.90
18611;DHT22;9435;52.122;5.502;2023-02-28T11:47:09;6.20;99.90
18611;DHT22;9435;52.122;5.502;2023-02-28T11:49:45;6.20;99.90
18611;DHT22;9435;52.122;5.502;2023-02-28T11:52:20;5.90;99.90
18611;DHT22;9435;52.122;5.502;2023-02-28T11:54:58;6.10;99.90
18611;DHT22;9435;52.122;5.502;2023-02-28T11:57:38;6.00;99.90
18611;DHT22;9435;52.122;5.502;2023-02-28T12:00:19;6.00;99.90
18611;DHT22;9435;52.122;5.502;2023-02-28T12:02:59;6.10;99.90
18611;DHT22;9435;52.122;5.502;2023-02-28T12:05:31;6.20;99.90
18611;DHT22;9435;52.122;5.502;2023-02-28T12:08:11;6.30;99.90
18611;DHT22;9435;52.122;5.502;2023-02-28T12:10:57;6.40;99.90
18611;DHT22;9435;52.122;5.502;2023-02-28T12:13:37;6.30;99.90
18611;DHT22;9435;52.122;5.502;2023-02-28T12:19:10;6.10;99.90
18611;DHT22;9435;52.122;5.502;2023-02-28T12:24:55;6.20;99.90
18611;DHT22;9435;52.122;5.502;2023-02-28T12:27:30;6.30;99.90
18611;DHT22;9435;52.122;5.502;2023-02-28T12:30:03;6.10;99.90
18611;DHT22;9435;52.122;5.502;2023-02-28T12:32:36;6.30;99.90
18611;DHT22;9435;52.122;5.502;2023-02-28T12:35:11;6.40;99.90
18611;DHT22;9435;52.122;5.502;2023-02-28T12:37:42;6.50;99.90
18611;DHT22;9435;52.122;5.502;2023-02-28T12:40:17;6.50;99.90
18611;DHT22;9435;52.122;5.502;2023-02-28T12:42:49;6.40;99.90
18611;DHT22;9435;52.122;5.502;2023-02-28T12:45:20;6.40;99.90
18611;DHT22;9435;52.122;5.502;2023-02-28T12:47:55;6.50;99.90
18611;DHT22;9435;52.122;5.502;2023-02-28T12:50:24;6.60;99.90
18611;DHT22;9435;52.122;5.502;2023-02-28T12:53:02;6.50;99.90
18611;DHT22;9435;52.122;5.502;2023-02-28T12:55:38;6.20;99.90
18611;DHT22;9435;52.122;5.502;2023-02-28T12:58:12;6.30;99.90
18611;DHT22;9435;52.122;5.502;2023-02-28T13:00:50;6.40;99.90
18611;DHT22;9435;52.122;5.502;2023-02-28T13:03:39;6.50;99.90
18611;DHT22;9435;52.122;5.502;2023-02-28T13:06:23;6.50;99.90
18611;DHT22;9435;52.122;5.502;2023-02-28T13:09:15;6.60;99.90
18611;DHT22;9435;52.122;5.502;2023-02-28T13:11:46;6.70;99.90
18611;DHT22;9435;52.122;5.502;2023-02-28T13:14:20;6.60;99.90
18611;DHT22;9435;52.122;5.502;2023-02-28T13:16:56;6.50;99.90
18611;DHT22;9435;52.122;5.502;2023-02-28T13:19:26;6.40;99.90
18611;DHT22;9435;52.122;5.502;2023-02-28T13:21:54;6.50;99.90
18611;DHT22;9435;52.122;5.502;2023-02-28T13:24:44;6.60;99.90
18611;DHT22;9435;52.122;5.502;2023-02-28T13:27:35;6.50;99.90
18611;DHT22;9435;52.122;5.502;2023-02-28T13:33:28;6.50;99.90
18611;DHT22;9435;52.122;5.502;2023-02-28T13:36:11;6.30;99.90
18611;DHT22;9435;52.122;5.502;2023-02-28T13:38:49;6.30;99.90
18611;DHT22;9435;52.122;5.502;2023-02-28T13:41:47;6.20;99.90
18611;DHT22;9435;52.122;5.502;2023-02-28T13:44:18;6.40;99.90
18611;DHT22;9435;52.122;5.502;2023-02-28T13:47:20;6.50;99.90
18611;DHT22;9435;52.122;5.502;2023-02-28T13:49:51;6.50;99.90
18611;DHT22;9435;52.122;5.502;2023-02-28T13:52:21;6.40;99.90
18611;DHT22;9435;52.122;5.502;2023-02-28T13:54:58;6.40;99.90
18611;DHT22;9435;52.122;5.502;2023-02-28T13:57:39;6.30;99.90
18611;DHT22;9435;52.122;5.502;2023-02-28T14:00:22;6.20;99.90
18611;DHT22;9435;52.122;5.502;2023-02-28T14:06:22;6.40;99.90
18611;DHT22;9435;52.122;5.502;2023-02-28T14:08:55;6.30;99.90
18611;DHT22;9435;52.122;5.502;2023-02-28T14:11:30;6.40;99.90
18611;DHT22;9435;52.122;5.502;2023-02-28T14:13:59;6.30;99.90
18611;DHT22;9435;52.122;5.502;2023-02-28T14:16:37;6.30;99.90
18611;DHT22;9435;52.122;5.502;2023-02-28T14:19:11;6.40;99.90
18611;DHT22;9435;52.122;5.502;2023-02-28T14:21:46;6.40;99.90
18611;DHT22;9435;52.122;5.502;2023-02-28T14:24:48;6.30;99.90
18611;DHT22;9435;52.122;5.502;2023-02-28T14:27:35;6.30;99.90
18611;DHT22;9435;52.122;5.502;2023-02-28T14:30:42;6.30;99.90
18611;DHT22;9435;52.122;5.502;2023-02-28T14:33:34;6.40;99.90
18611;DHT22;9435;52.122;5.502;2023-02-28T14:36:07;6.50;99.90
18611;DHT22;9435;52.122;5.502;2023-02-28T14:38:42;6.40;99.90
18611;DHT22;9435;52.122;5.502;2023-02-28T14:41:18;6.40;99.90
18611;DHT22;9435;52.122;5.502;2023-02-28T14:43:52;6.50;99.90
18611;DHT22;9435;52.122;5.502;2023-02-28T14:46:20;6.50;99.90
18611;DHT22;9435;52.122;5.502;2023-02-28T14:48:50;6.50;99.90
18611;DHT22;9435;52.122;5.502;2023-02-28T14:51:22;6.60;99.90
18611;DHT22;9435;52.122;5.502;2023-02-28T14:53:51;6.70;99.90
18611;DHT22;9435;52.122;5.502;2023-02-28T14:56:24;6.60;99.90
18611;DHT22;9435;52.122;5.502;2023-02-28T14:58:53;6.50;99.90
18611;DHT22;9435;52.122;5.502;2023-02-28T15:01:22;6.50;99.90
18611;DHT22;9435;52.122;5.502;2023-02-28T15:04:00;6.50;99.90
18611;DHT22;9435;52.122;5.502;2023-02-28T15:06:28;6.50;99.90
18611;DHT22;9435;52.122;5.502;2023-02-28T15:09:13;6.50;99.90
18611;DHT22;9435;52.122;5.502;2023-02-28T15:11:40;6.50;99.90
18611;DHT22;9435;52.122;5.502;2023-02-28T15:14:14;6.40;99.90
18611;DHT22;9435;52.122;5.502;2023-02-28T15:16:44;6.40;99.90
18611;DHT22;9435;52.122;5.502;2023-02-28T15:19:19;6.40;99.90
18611;DHT22;9435;52.122;5.502;2023-02-28T15:21:49;6.50;99.90
18611;DHT22;9435;52.122;5.502;2023-02-28T15:24:19;6.50;99.90
18611;DHT22;9435;52.122;5.502;2023-02-28T15:26:53;6.50;99.90
18611;DHT22;9435;52.122;5.502;2023-02-28T15:29:22;6.40;99.90
18611;DHT22;9435;52.122;5.502;2023-02-28T15:31:50;6.40;99.90
18611;DHT22;9435;52.122;5.502;2023-02-28T15:34:22;6.40;99.90
18611;DHT22;9435;52.122;5.502;2023-02-28T15:36:49;6.40;99.90
18611;DHT22;9435;52.122;5.502;2023-02-28T15:39:20;6.40;99.90
18611;DHT22;9435;52.122;5.502;2023-02-28T15:41:48;6.40;99.90
18611;DHT22;9435;52.122;5.502;2023-02-28T15:44:18;6.30;99.90
18611;DHT22;9435;52.122;5.502;2023-02-28T15:46:58;6.30;99.90
18611;DHT22;9435;52.122;5.502;2023-02-28T15:49:29;6.30;99.90
18611;DHT22;9435;52.122;5.502;2023-02-28T15:52:00;6.30;99.90
18611;DHT22;9435;52.122;5.502;2023-02-28T15:54:29;6.30;99.90
18611;DHT22;9435;52.122;5.502;2023-02-28T15:57:03;6.30;99.90
18611;DHT22;9435;52.122;5.502;2023-02-28T15:59:32;6.30;99.90
18611;DHT22;9435;52.122;5.502;2023-02-28T16:02:11;6.30;99.90
18611;DHT22;9435;52.122;5.502;2023-02-28T16:07:33;6.20;99.90
18611;DHT22;9435;52.122;5.502;2023-02-28T16:10:01;6.10;99.90
18611;DHT22;9435;52.122;5.502;2023-02-28T16:12:31;6.10;99.90
18611;DHT22;9435;52.122;5.502;2023-02-28T16:14:59;6.10;99.90
18611;DHT22;9435;52.122;5.502;2023-02-28T16:17:30;6.00;99.90
18611;DHT22;9435;52.122;5.502;2023-02-28T16:19:58;6.00;99.90
18611;DHT22;9435;52.122;5.502;2023-02-28T16:22:26;6.00;99.90
18611;DHT22;9435;52.122;5.502;2023-02-28T16:24:54;5.90;99.90
18611;DHT22;9435;52.122;5.502;2023-02-28T16:27:26;5.90;99.90
18611;DHT22;9435;52.122;5.502;2023-02-28T16:29:55;5.80;99.90
18611;DHT22;9435;52.122;5.502;2023-02-28T16:32:22;5.90;99.90
18611;DHT22;9435;52.122;5.502;2023-02-28T16:34:49;5.80;99.90
18611;DHT22;9435;52.122;5.502;2023-02-28T16:37:17;5.70;99.90
18611;DHT22;9435;52.122;5.502;2023-02-28T16:39:45;5.70;99.90
18611;DHT22;9435;52.122;5.502;2023-02-28T16:42:16;5.50;99.90
18611;DHT22;9435;52.122;5.502;2023-02-28T16:44:46;5.40;99.90
18611;DHT22;9435;52.122;5.502;2023-02-28T16:47:13;5.40;99.90
18611;DHT22;9435;52.122;5.502;2023-02-28T16:49:40;5.30;99.90
18611;DHT22;9435;52.122;5.502;2023-02-28T16:52:09;5.30;99.90